Página principal
METAR-TAF:

METAR-TAF

Aeroportos :

Qyzylorda, Cazaquistão

latitude: 44-51N, longitude: 065-30E, altura: 129 m

Observação actual do tempo

O boletim foi feito há 36 minutos, às 19:00 UTC
Vento 4 kt de nor-nordeste
Temperatura -1°C
Humidade 93%
Pressão 1024 hPa
Visibilidade 10 km ou mais
sem nuvens abaixo de 1500 metros e sem cumulonimbus

METAR: UAOO 231900Z 03002MPS CAVOK M01/M02 Q1024 R05/CLRD70 NOSIG RMK QFE756/1008

Hora: 01:36 (19:36 UTC)

Previsão

O boletim foi feito há 2 horas e 36 minutos, às 17:00 UTC
Previsão válida de 23 às 18 UTC a 24 às 03 UTC
Vento 8 kt de nordeste
Visibilidade 10 km ou mais
sem nuvens abaixo de 1500 metros e sem cumulonimbus

TAF: UAOO 231700Z 2318/2403 04004MPS CAVOK

Observações e previsões do tempo de mais de 4000 aeroportos (mensagens METAR e TAF).

As estações disponíveis são os pontos amarelos e vermelhos sobre o mapa.

Mova o rato sobre o mapa para ver o nome da estação.

Depois clique no ponto para visualizar as observações e previsões meteorológicas.

Para alterar o mapa : clique nos botões verdes com uma cruz preta para aumentar o zoom; no botão verde com uma pitada de zoom; ou nas setas verdes para mapas adjacentes.


METAR-TAF: